createdAt,value
2023-04-25T00:00:15.474Z,0.86
2023-04-25T00:01:15.165Z,0.86
2023-04-25T00:02:15.205Z,0.88
2023-04-25T00:03:15.374Z,0.87
2023-04-25T00:04:15.250Z,0.85
2023-04-25T00:05:15.531Z,0.86
2023-04-25T00:06:15.116Z,0.87
2023-04-25T00:07:15.158Z,0.85
2023-04-25T00:08:15.127Z,0.88
2023-04-25T00:09:15.114Z,0.87
2023-04-25T00:10:15.119Z,0.87
2023-04-25T00:11:15.107Z,0.85
2023-04-25T00:12:15.084Z,0.87
2023-04-25T00:13:15.079Z,0.86
2023-04-25T00:14:15.065Z,0.88
2023-04-25T00:15:15.167Z,0.85
2023-04-25T00:16:15.457Z,0.86
2023-04-25T00:17:15.283Z,0.87
2023-04-25T00:18:15.324Z,0.85
2023-04-25T00:19:15.388Z,0.85
2023-04-25T00:20:15.474Z,0.86
2023-04-25T00:21:15.962Z,0.87
2023-04-25T00:22:15.558Z,0.86
2023-04-25T00:23:15.616Z,0.86
2023-04-25T00:24:15.715Z,0.85
2023-04-25T00:25:15.744Z,0.86
2023-04-25T00:26:15.971Z,0.85
2023-04-25T00:27:15.870Z,0.85
2023-04-25T00:28:15.928Z,0.83
2023-04-25T00:29:15.975Z,0.84
2023-04-25T00:30:16.019Z,0.86
2023-04-25T00:31:16.153Z,0.85
2023-04-25T00:32:16.115Z,0.86
2023-04-25T00:33:16.208Z,0.85
2023-04-25T00:34:16.252Z,0.84
2023-04-25T00:35:16.322Z,0.84
2023-04-25T00:36:16.457Z,0.83
2023-04-25T00:37:16.428Z,0.84
2023-04-25T00:38:16.475Z,0.83
2023-04-25T00:39:16.564Z,0.83
2023-04-25T00:40:16.609Z,0.83
2023-04-25T00:41:16.999Z,0.83
2023-04-25T00:42:16.709Z,0.84
2023-04-25T00:43:16.792Z,0.84
2023-04-25T00:44:16.819Z,0.83
2023-04-25T00:45:16.887Z,0.84
2023-04-25T00:46:16.963Z,0.84
2023-04-25T00:47:16.992Z,0.83
2023-04-25T00:48:17.065Z,0.84
2023-04-25T00:49:17.137Z,0.82
2023-04-25T00:50:17.176Z,0.82
2023-04-25T00:51:17.461Z,0.80
2023-04-25T00:52:17.320Z,0.82
2023-04-25T00:53:17.367Z,0.81
2023-04-25T00:54:17.428Z,0.82
2023-04-25T00:55:17.451Z,0.82
2023-04-25T00:56:17.958Z,0.81
2023-04-25T00:57:17.558Z,0.80
2023-04-25T00:58:17.634Z,0.80
2023-04-25T00:59:17.666Z,0.82
2023-04-25T01:00:17.710Z,0.80
2023-04-25T01:01:17.812Z,0.80
2023-04-25T01:02:17.966Z,0.81
2023-04-25T01:03:18.000Z,0.78
2023-04-25T01:04:18.307Z,0.81
2023-04-25T01:05:18.009Z,0.80
2023-04-25T01:06:18.477Z,0.79
2023-04-25T01:07:18.075Z,0.79
2023-04-25T01:08:18.145Z,0.80
2023-04-25T01:09:18.191Z,0.79
2023-04-25T01:10:18.282Z,0.80
2023-04-25T01:11:18.464Z,0.79
2023-04-25T01:12:18.371Z,0.80
2023-04-25T01:13:18.458Z,0.78
2023-04-25T01:14:18.513Z,0.78
2023-04-25T01:15:18.560Z,0.78
2023-04-25T01:16:18.998Z,0.78
2023-04-25T01:17:18.681Z,0.79
2023-04-25T01:18:18.724Z,0.77
2023-04-25T01:19:18.781Z,0.79
2023-04-25T01:20:18.857Z,0.79
2023-04-25T01:21:18.893Z,0.78
2023-04-25T01:22:18.984Z,0.76
2023-04-25T01:23:19.025Z,0.76
2023-04-25T01:24:19.081Z,0.77
2023-04-25T01:25:19.142Z,0.79
2023-04-25T01:26:19.483Z,0.76
2023-04-25T01:27:19.263Z,0.78
2023-04-25T01:28:19.317Z,0.78
2023-04-25T01:29:19.377Z,0.77
2023-04-25T01:30:19.433Z,0.77
2023-04-25T01:31:19.999Z,0.77
2023-04-25T01:32:19.531Z,0.77
2023-04-25T01:33:19.666Z,0.76
2023-04-25T01:34:19.644Z,0.76
2023-04-25T01:35:19.711Z,0.76
2023-04-25T01:36:19.968Z,0.77
2023-04-25T01:37:19.814Z,0.76
2023-04-25T01:38:19.837Z,0.77
2023-04-25T01:39:19.916Z,0.77
2023-04-25T01:40:19.950Z,0.75
2023-04-25T01:41:20.469Z,0.78
2023-04-25T01:42:20.087Z,0.75
2023-04-25T01:43:20.139Z,0.75
2023-04-25T01:44:20.160Z,0.78
2023-04-25T01:45:20.243Z,0.77
2023-04-25T01:46:20.541Z,0.75
2023-04-25T01:47:20.360Z,0.76
2023-04-25T01:48:20.408Z,0.76
2023-04-25T01:49:20.448Z,0.75
2023-04-25T01:50:20.493Z,0.76
2023-04-25T01:51:20.990Z,0.77
2023-04-25T01:52:20.557Z,0.77
2023-04-25T01:53:20.637Z,0.77
2023-04-25T01:54:20.677Z,0.75
2023-04-25T01:56:03.476Z,0.50
2023-04-25T01:57:03.512Z,0.50
2023-04-25T01:58:03.459Z,0.50
2023-04-25T01:59:03.446Z,0.50
2023-04-25T02:00:03.459Z,0.50
2023-04-25T02:01:03.624Z,0.50
2023-04-25T02:02:03.421Z,0.51
2023-04-25T02:03:03.533Z,0.50
2023-04-25T02:04:03.664Z,0.50
2023-04-25T02:05:03.389Z,0.52
2023-04-25T02:06:03.704Z,0.50
2023-04-25T02:07:03.410Z,0.51
2023-04-25T02:08:03.415Z,0.50
2023-04-25T02:09:03.386Z,0.51
2023-04-25T02:10:03.380Z,0.51
2023-04-25T02:11:03.704Z,0.51
2023-04-25T02:12:03.398Z,0.51
2023-04-25T02:13:03.391Z,0.51
2023-04-25T02:14:03.348Z,0.51
2023-04-25T02:15:03.358Z,0.51
2023-04-25T02:16:03.740Z,0.52
2023-04-25T02:17:03.497Z,0.51
2023-04-25T02:18:03.405Z,0.51
2023-04-25T02:19:03.301Z,0.51
2023-04-25T02:20:03.341Z,0.51
2023-04-25T02:21:03.298Z,0.51
2023-04-25T02:22:03.285Z,0.50
2023-04-25T02:23:03.416Z,0.51
2023-04-25T02:24:03.307Z,0.51
2023-04-25T02:25:03.317Z,0.51
2023-04-25T02:26:03.262Z,0.51
2023-04-25T02:27:03.264Z,0.51
2023-04-25T02:28:03.286Z,0.50
2023-04-25T02:29:03.272Z,0.51
2023-04-25T02:30:03.268Z,0.52
2023-04-25T02:31:03.254Z,0.50
2023-04-25T02:32:03.703Z,0.52
2023-04-25T02:33:03.289Z,0.51
2023-04-25T02:34:03.221Z,0.51
2023-04-25T02:35:03.225Z,0.51
2023-04-25T02:36:03.260Z,0.51
2023-04-25T02:37:03.217Z,0.51
2023-04-25T02:38:03.195Z,0.51
2023-04-25T02:39:03.214Z,0.51
2023-04-25T02:40:03.181Z,0.52
2023-04-25T02:41:03.192Z,0.51
2023-04-25T02:42:03.193Z,0.50
2023-04-25T02:43:03.168Z,0.51
2023-04-25T02:44:03.145Z,0.51
2023-04-25T02:45:03.169Z,0.52
2023-04-25T02:46:03.158Z,0.51
2023-04-25T02:47:03.267Z,0.52
2023-04-25T02:48:03.185Z,0.52
2023-04-25T02:49:03.145Z,0.51
2023-04-25T02:50:03.118Z,0.51
2023-04-25T02:51:03.113Z,0.52
2023-04-25T02:52:03.190Z,0.52
2023-04-25T02:53:03.126Z,0.50
2023-04-25T02:54:03.111Z,0.51
2023-04-25T02:55:03.086Z,0.51
2023-04-25T02:56:03.056Z,0.51
2023-04-25T02:57:03.198Z,0.52
2023-04-25T02:58:03.077Z,0.51
2023-04-25T02:59:03.056Z,0.51
2023-04-25T03:00:03.053Z,0.50
2023-04-25T03:01:03.152Z,0.51
2023-04-25T03:02:03.178Z,0.51
2023-04-25T03:03:03.376Z,0.51
2023-04-25T03:04:03.165Z,0.50
2023-04-25T03:05:03.154Z,0.52
2023-04-25T03:06:03.189Z,0.51
2023-04-25T03:07:03.730Z,0.51
2023-04-25T03:08:03.285Z,0.50
2023-04-25T03:09:03.285Z,0.51
2023-04-25T03:10:03.287Z,0.52
2023-04-25T03:11:03.343Z,0.52
2023-04-25T03:12:03.728Z,0.50
2023-04-25T03:13:03.400Z,0.51
2023-04-25T03:14:03.399Z,0.51
2023-04-25T03:15:03.472Z,0.52
2023-04-25T03:16:03.519Z,0.50
2023-04-25T03:17:03.751Z,0.52
2023-04-25T03:18:03.591Z,0.51
2023-04-25T03:19:03.557Z,0.51
2023-04-25T03:20:03.603Z,0.52
2023-04-25T03:21:03.598Z,0.52
2023-04-25T03:22:03.674Z,0.52
2023-04-25T03:23:03.681Z,0.52
2023-04-25T03:24:03.708Z,0.51
2023-04-25T03:25:03.717Z,0.51
2023-04-25T03:26:03.761Z,0.50
2023-04-25T03:27:04.205Z,0.52
2023-04-25T03:28:03.786Z,0.51
2023-04-25T03:29:03.799Z,0.51
2023-04-25T03:30:03.845Z,0.52
2023-04-25T03:31:03.863Z,0.52
2023-04-25T03:32:04.271Z,0.52
2023-04-25T03:33:03.983Z,0.52
2023-04-25T03:34:03.970Z,0.51
2023-04-25T03:35:03.949Z,0.52
2023-04-25T03:36:03.971Z,0.52
2023-04-25T03:37:04.233Z,0.51
2023-04-25T03:38:03.993Z,0.52
2023-04-25T03:39:04.042Z,0.52
2023-04-25T03:40:04.054Z,0.52
2023-04-25T03:41:04.066Z,0.51
2023-04-25T03:42:04.246Z,0.52
2023-04-25T03:43:04.085Z,0.51
2023-04-25T03:44:04.157Z,0.50
2023-04-25T03:45:04.121Z,0.51
2023-04-25T03:46:04.234Z,0.51
2023-04-25T03:47:04.209Z,0.51
2023-04-25T03:48:04.237Z,0.51
2023-04-25T03:49:04.202Z,0.51
2023-04-25T03:50:04.237Z,0.51
2023-04-25T03:51:04.243Z,0.50
2023-04-25T03:52:04.818Z,0.51
2023-04-25T03:53:04.288Z,0.52
2023-04-25T03:54:04.290Z,0.52
2023-04-25T03:55:04.331Z,0.52
2023-04-25T03:56:04.334Z,0.51
2023-04-25T03:57:04.737Z,0.51
2023-04-25T03:58:04.388Z,0.51
2023-04-25T03:59:04.374Z,0.51
2023-04-25T04:00:04.427Z,0.52
2023-04-25T04:01:04.442Z,0.51
2023-04-25T04:02:04.810Z,0.52
2023-04-25T04:03:04.643Z,0.52
2023-04-25T04:04:04.691Z,0.51
2023-04-25T04:05:04.679Z,0.51
2023-04-25T04:06:04.502Z,0.50
2023-04-25T04:07:04.721Z,0.50
2023-04-25T04:08:04.543Z,0.51
2023-04-25T04:09:04.564Z,0.50
2023-04-25T04:10:04.561Z,0.51
2023-04-25T04:11:04.563Z,0.50
2023-04-25T04:12:04.707Z,0.52
2023-04-25T04:13:04.620Z,0.50
2023-04-25T04:14:04.675Z,0.51
2023-04-25T04:15:04.635Z,0.52
2023-04-25T04:16:04.684Z,0.52
2023-04-25T04:17:04.659Z,0.52
2023-04-25T04:18:04.723Z,0.51
2023-04-25T04:19:04.707Z,0.51
2023-04-25T04:20:04.727Z,0.51
2023-04-25T04:21:04.788Z,0.51
2023-04-25T04:22:04.802Z,0.51
2023-04-25T04:23:04.764Z,0.51
2023-04-25T04:24:04.853Z,0.52
2023-04-25T04:25:04.841Z,0.52
2023-04-25T04:26:04.841Z,0.52
2023-04-25T04:27:05.214Z,0.51
2023-04-25T04:28:04.822Z,0.51
2023-04-25T04:29:04.898Z,0.52
2023-04-25T04:30:04.865Z,0.51
2023-04-25T04:31:05.025Z,0.52
2023-04-25T04:32:05.232Z,0.51
2023-04-25T04:33:04.937Z,0.51
2023-04-25T04:34:04.883Z,0.50
2023-04-25T04:35:04.900Z,0.51
2023-04-25T04:36:04.906Z,0.51
2023-04-25T04:37:05.247Z,0.52
2023-04-25T04:38:04.946Z,0.52
2023-04-25T04:39:04.943Z,0.50
2023-04-25T04:40:04.957Z,0.51
2023-04-25T04:41:04.958Z,0.52
2023-04-25T04:42:04.963Z,0.52
2023-04-25T04:43:04.972Z,0.52
2023-04-25T04:44:06.153Z,0.52
2023-04-25T04:45:04.997Z,0.51
2023-04-25T04:46:05.049Z,0.52
2023-04-25T04:47:05.293Z,0.51
2023-04-25T04:48:05.124Z,0.51
2023-04-25T04:49:05.074Z,0.51
2023-04-25T04:50:05.078Z,0.51
2023-04-25T04:51:05.074Z,0.52
2023-04-25T04:52:05.222Z,0.52
2023-04-25T04:53:05.082Z,0.51
2023-04-25T04:54:05.115Z,0.50
2023-04-25T04:55:05.122Z,0.51
2023-04-25T04:56:05.123Z,0.51
2023-04-25T04:57:05.235Z,0.52
2023-04-25T04:58:05.103Z,0.51
2023-04-25T04:59:05.121Z,0.51
2023-04-25T05:00:05.133Z,0.51
2023-04-25T05:01:05.197Z,0.52
2023-04-25T05:02:05.182Z,0.50
2023-04-25T05:03:05.348Z,0.51
2023-04-25T05:04:05.309Z,0.51
2023-04-25T05:05:05.216Z,0.51
2023-04-25T05:06:05.196Z,0.51
2023-04-25T05:07:05.265Z,0.50
2023-04-25T05:08:05.253Z,0.50
2023-04-25T05:09:05.226Z,0.51
2023-04-25T05:10:05.273Z,0.52
2023-04-25T05:11:05.255Z,0.51
2023-04-25T05:12:05.764Z,0.50
2023-04-25T05:13:05.290Z,0.50
2023-04-25T05:14:05.304Z,0.51
2023-04-25T05:15:05.301Z,0.51
2023-04-25T05:16:05.339Z,0.51
2023-04-25T05:17:05.320Z,0.51
2023-04-25T05:18:05.407Z,0.50
2023-04-25T05:19:05.334Z,0.50
2023-04-25T05:20:05.340Z,0.51
2023-04-25T05:21:05.354Z,0.51
2023-04-25T05:22:05.770Z,0.50
2023-04-25T05:23:05.398Z,0.51
2023-04-25T05:24:05.419Z,0.52
2023-04-25T05:25:05.415Z,0.52
2023-04-25T05:26:05.415Z,0.52
2023-04-25T05:27:05.441Z,0.52
2023-04-25T05:28:05.565Z,0.52
2023-04-25T05:29:05.442Z,0.51
2023-04-25T05:30:05.463Z,0.53
2023-04-25T05:31:05.463Z,0.52
2023-04-25T05:32:05.523Z,0.53
2023-04-25T05:33:05.561Z,0.52
2023-04-25T05:34:05.496Z,0.52
2023-04-25T05:35:05.583Z,0.52
2023-04-25T05:36:05.533Z,0.51
2023-04-25T05:37:05.538Z,0.51
2023-04-25T05:38:05.565Z,0.52
2023-04-25T05:39:05.568Z,0.51
2023-04-25T05:40:05.589Z,0.51
2023-04-25T05:41:05.589Z,0.51
2023-04-25T05:42:05.625Z,0.51
2023-04-25T05:43:05.758Z,0.52
2023-04-25T05:44:05.676Z,0.52
2023-04-25T05:45:05.657Z,0.51
2023-04-25T05:46:05.727Z,0.52
2023-04-25T05:47:05.723Z,0.53
2023-04-25T05:48:05.997Z,0.53
2023-04-25T05:49:05.752Z,0.52
2023-04-25T05:50:05.741Z,0.53
2023-04-25T05:51:05.739Z,0.52
2023-04-25T05:52:05.748Z,0.52
2023-04-25T05:53:06.255Z,0.52
2023-04-25T05:54:05.758Z,0.52
2023-04-25T05:55:05.789Z,0.51
2023-04-25T05:56:05.825Z,0.52
2023-04-25T05:57:05.805Z,0.51
2023-04-25T05:58:05.812Z,0.52
2023-04-25T05:59:05.831Z,0.52
2023-04-25T06:00:05.821Z,0.51
2023-04-25T06:01:05.834Z,0.51
2023-04-25T06:02:05.857Z,0.51
2023-04-25T06:03:06.406Z,0.53
2023-04-25T06:04:06.242Z,0.53
2023-04-25T06:05:05.961Z,0.51
2023-04-25T06:06:06.190Z,0.52
2023-04-25T06:07:05.905Z,0.51
2023-04-25T06:08:05.946Z,0.50
2023-04-25T06:09:05.935Z,0.50
2023-04-25T06:10:05.946Z,0.51
2023-04-25T06:11:05.919Z,0.51
2023-04-25T06:12:05.950Z,0.51
2023-04-25T06:13:05.949Z,0.50
2023-04-25T06:14:05.958Z,0.51
2023-04-25T06:15:13.232Z,0.52
2023-04-25T06:16:07.006Z,0.52
2023-04-25T06:17:05.945Z,0.50
2023-04-25T06:18:05.936Z,0.50
2023-04-25T06:19:05.914Z,0.48
2023-04-25T06:20:06.973Z,0.47
2023-04-25T06:21:05.926Z,0.51
2023-04-25T06:22:05.922Z,0.52
2023-04-25T06:23:06.301Z,0.52
2023-04-25T06:24:05.898Z,0.52
2023-04-25T06:25:05.887Z,0.52
2023-04-25T06:26:05.865Z,0.51
2023-04-25T06:27:05.872Z,0.53
2023-04-25T06:28:06.267Z,0.54
2023-04-25T06:29:05.975Z,0.56
2023-04-25T06:30:05.874Z,0.59
2023-04-25T06:31:05.921Z,0.58
2023-04-25T06:32:05.807Z,0.63
2023-04-25T06:33:05.834Z,0.67
2023-04-25T06:34:05.826Z,0.67
2023-04-25T06:35:05.827Z,0.68
2023-04-25T06:36:05.803Z,0.69
2023-04-25T06:37:05.827Z,0.71
2023-04-25T06:38:05.783Z,0.71
2023-04-25T06:39:05.791Z,0.70
2023-04-25T06:40:05.765Z,0.72
2023-04-25T06:41:05.814Z,0.70
2023-04-25T06:42:05.795Z,0.73
2023-04-25T06:43:05.757Z,0.77
2023-04-25T06:44:05.749Z,0.74
2023-04-25T06:45:05.735Z,0.71
2023-04-25T06:46:05.745Z,0.74
2023-04-25T06:47:05.811Z,0.70
2023-04-25T06:48:05.854Z,0.75
2023-04-25T06:49:05.717Z,0.79
2023-04-25T06:50:05.730Z,0.81
2023-04-25T06:51:05.726Z,0.80
2023-04-25T06:52:05.709Z,0.72
2023-04-25T06:53:05.684Z,0.74
2023-04-25T06:54:05.701Z,0.58
2023-04-25T06:55:05.693Z,0.53
2023-04-25T06:56:05.696Z,0.52
2023-04-25T06:57:05.720Z,0.52
2023-04-25T06:58:05.756Z,0.55
2023-04-25T06:59:05.745Z,0.57
2023-04-25T07:00:05.748Z,0.61
2023-04-25T07:01:05.827Z,0.69
2023-04-25T07:02:05.808Z,0.67
2023-04-25T07:03:06.343Z,0.67
2023-04-25T07:04:05.959Z,0.71
2023-04-25T07:05:05.873Z,0.71
2023-04-25T07:06:05.906Z,0.79
2023-04-25T07:07:05.954Z,0.77
2023-04-25T07:08:05.924Z,0.74
2023-04-25T07:09:05.936Z,0.73
2023-04-25T07:10:05.959Z,0.75
2023-04-25T07:11:05.989Z,0.73
2023-04-25T07:12:06.027Z,0.75
2023-04-25T07:13:06.283Z,0.74
2023-04-25T07:14:06.027Z,0.75
2023-04-25T07:15:06.058Z,0.67
2023-04-25T07:16:06.110Z,0.72
2023-04-25T07:17:06.122Z,0.74
2023-04-25T07:18:06.187Z,0.73
2023-04-25T07:19:06.149Z,0.76
2023-04-25T07:20:06.168Z,0.72
2023-04-25T07:21:06.201Z,0.71
2023-04-25T07:22:06.222Z,0.72
2023-04-25T07:23:06.292Z,0.73
2023-04-25T07:24:06.225Z,0.70
2023-04-25T07:25:06.265Z,0.72
2023-04-25T07:26:06.308Z,0.74
2023-04-25T07:27:06.315Z,0.71
2023-04-25T07:28:06.314Z,0.67
2023-04-25T07:29:06.364Z,0.63
2023-04-25T07:30:06.363Z,0.71
2023-04-25T07:31:06.380Z,0.69
2023-04-25T07:32:06.414Z,0.67
2023-04-25T07:33:06.380Z,0.67
2023-04-25T07:34:06.374Z,0.68
2023-04-25T07:35:06.410Z,0.63
2023-04-25T07:36:06.367Z,0.65
2023-04-25T07:37:06.371Z,0.60
2023-04-25T07:38:06.372Z,0.60
2023-04-25T07:39:06.371Z,0.62
2023-04-25T07:40:06.383Z,0.58
2023-04-25T07:41:06.357Z,0.54
2023-04-25T07:42:06.402Z,0.52
2023-04-25T07:43:06.781Z,0.53
2023-04-25T07:44:06.396Z,0.53
2023-04-25T07:45:06.487Z,0.53
2023-04-25T07:46:06.476Z,0.54
2023-04-25T07:47:06.492Z,0.54
2023-04-25T07:48:06.911Z,0.53
2023-04-25T07:49:07.219Z,0.53
2023-04-25T07:50:06.592Z,0.55
2023-04-25T07:51:07.623Z,0.54
2023-04-25T07:52:06.590Z,0.53
2023-04-25T07:53:06.848Z,0.52
2023-04-25T07:54:06.711Z,0.52
2023-04-25T07:55:06.716Z,0.52
2023-04-25T07:56:06.805Z,0.53
2023-04-25T07:57:06.862Z,0.52
2023-04-25T07:58:07.281Z,0.52
2023-04-25T07:59:06.903Z,0.52
2023-04-25T08:00:06.992Z,0.53
2023-04-25T08:01:07.050Z,0.52
2023-04-25T08:02:07.103Z,0.52
2023-04-25T08:03:07.483Z,0.52
2023-04-25T08:04:07.454Z,0.51
2023-04-25T08:05:07.517Z,0.50
2023-04-25T08:06:08.337Z,0.52
2023-04-25T08:07:07.456Z,0.52
2023-04-25T08:08:07.846Z,0.52
2023-04-25T08:09:07.519Z,0.52
2023-04-25T08:10:07.577Z,0.51
2023-04-25T08:11:07.640Z,0.52
2023-04-25T08:12:07.695Z,0.51
2023-04-25T08:13:07.665Z,0.51
2023-04-25T08:14:07.668Z,0.51
2023-04-25T08:15:07.689Z,0.52
2023-04-25T08:16:07.741Z,0.53
2023-04-25T08:17:07.713Z,0.52
2023-04-25T08:18:07.756Z,0.51
2023-04-25T08:19:07.661Z,0.52
2023-04-25T08:20:07.679Z,0.51
2023-04-25T08:21:07.692Z,0.51
2023-04-25T08:22:07.664Z,0.51
2023-04-25T08:23:07.664Z,0.51
2023-04-25T08:24:07.704Z,0.51
2023-04-25T08:25:07.684Z,0.51
2023-04-25T08:26:07.690Z,0.52
2023-04-25T08:27:07.697Z,0.52
2023-04-25T08:28:07.665Z,0.51
2023-04-25T08:29:07.793Z,0.51
2023-04-25T08:30:07.699Z,0.52
2023-04-25T08:31:07.800Z,0.51
2023-04-25T08:32:07.729Z,0.50
2023-04-25T08:33:07.763Z,0.50
2023-04-25T08:34:07.807Z,0.50
2023-04-25T08:35:07.777Z,0.51
2023-04-25T08:36:07.772Z,0.51
2023-04-25T08:37:07.806Z,0.50
2023-04-25T08:38:08.061Z,0.52
2023-04-25T08:39:07.852Z,0.50
2023-04-25T08:40:07.877Z,0.51
2023-04-25T08:41:07.901Z,0.52
2023-04-25T08:42:07.907Z,0.51
2023-04-25T08:43:07.964Z,0.50
2023-04-25T08:44:08.316Z,0.52
2023-04-25T08:45:08.009Z,0.52
2023-04-25T08:46:08.023Z,0.52
2023-04-25T08:47:08.079Z,0.53
2023-04-25T08:48:08.115Z,0.52
2023-04-25T08:49:08.325Z,0.53
2023-04-25T08:50:08.298Z,0.52
2023-04-25T08:52:08.193Z,0.52
2023-04-25T08:53:08.816Z,0.52
2023-04-25T08:54:12.946Z,0.52
2023-04-25T08:55:09.296Z,0.52
2023-04-25T08:56:08.276Z,0.52
2023-04-25T08:57:08.317Z,0.52
2023-04-25T08:58:08.262Z,0.52
2023-04-25T08:59:08.272Z,0.52
2023-04-25T09:00:08.222Z,0.51
2023-04-25T09:01:08.319Z,0.51
2023-04-25T09:02:08.225Z,0.51
2023-04-25T09:03:08.293Z,0.50
2023-04-25T09:04:08.314Z,0.51
2023-04-25T09:05:08.248Z,0.51
2023-04-25T09:06:08.321Z,0.51
2023-04-25T09:07:09.316Z,0.51
2023-04-25T09:08:08.435Z,0.52
2023-04-25T09:09:09.236Z,0.51
2023-04-25T09:10:08.540Z,0.51
2023-04-25T09:11:08.597Z,0.51
2023-04-25T09:12:08.667Z,0.52
2023-04-25T09:13:08.708Z,0.51
2023-04-25T09:14:08.810Z,0.50
2023-04-25T09:15:08.842Z,0.50
2023-04-25T09:16:08.954Z,0.50
2023-04-25T09:17:09.071Z,0.51
2023-04-25T09:18:09.077Z,0.51
2023-04-25T09:19:09.055Z,0.52
2023-04-25T09:20:09.131Z,0.52
2023-04-25T09:21:13.583Z,0.52
2023-04-25T09:22:10.208Z,0.52
2023-04-25T09:23:09.175Z,0.52
2023-04-25T09:24:09.165Z,0.52
2023-04-25T09:25:09.168Z,0.52
2023-04-25T09:26:09.146Z,0.52
2023-04-25T09:27:09.178Z,0.52
2023-04-25T09:28:09.164Z,0.52
2023-04-25T09:29:09.354Z,0.51
2023-04-25T09:30:09.116Z,0.51
2023-04-25T09:31:09.168Z,0.50
2023-04-25T09:32:09.291Z,0.51
2023-04-25T09:33:09.316Z,0.51
2023-04-25T09:34:09.789Z,0.50
2023-04-25T09:35:09.398Z,0.51
2023-04-25T09:36:09.508Z,0.51
2023-04-25T09:37:09.523Z,0.52
2023-04-25T09:38:09.557Z,0.51
2023-04-25T09:39:09.797Z,0.51
2023-04-25T09:40:09.586Z,0.52
2023-04-25T09:41:09.599Z,0.51
2023-04-25T09:42:09.635Z,0.51
2023-04-25T09:43:09.641Z,0.51
2023-04-25T09:44:09.633Z,0.52
2023-04-25T09:45:09.668Z,0.52
2023-04-25T09:46:09.708Z,0.52
2023-04-25T09:47:09.666Z,0.53
2023-04-25T09:48:09.714Z,0.55
2023-04-25T09:49:09.831Z,0.58
2023-04-25T09:50:09.652Z,0.59
2023-04-25T09:51:09.729Z,0.58
2023-04-25T09:52:09.709Z,0.55
2023-04-25T09:53:09.789Z,0.57
2023-04-25T09:54:09.807Z,0.55
2023-04-25T09:55:09.668Z,0.55
2023-04-25T09:56:09.697Z,0.50
2023-04-25T09:57:09.731Z,0.50
2023-04-25T09:58:09.747Z,0.50
2023-04-25T09:59:09.842Z,0.51
2023-04-25T10:00:09.718Z,0.52
2023-04-25T10:01:09.815Z,0.50
2023-04-25T10:02:09.858Z,0.50
2023-04-25T10:03:09.886Z,0.50
2023-04-25T10:04:09.947Z,0.51
2023-04-25T10:05:09.918Z,0.53
2023-04-25T10:06:09.887Z,0.53
2023-04-25T10:07:09.973Z,0.52
2023-04-25T10:08:10.044Z,0.52
2023-04-25T10:09:10.050Z,0.53
2023-04-25T10:10:10.118Z,0.50
2023-04-25T10:11:10.185Z,0.51
2023-04-25T10:12:10.204Z,0.51
2023-04-25T10:13:10.253Z,0.52
2023-04-25T10:14:10.341Z,0.53
2023-04-25T10:15:10.376Z,0.52
2023-04-25T10:16:10.430Z,0.51
2023-04-25T10:17:10.477Z,0.51
2023-04-25T10:18:10.632Z,0.53
2023-04-25T10:19:10.577Z,0.53
2023-04-25T10:20:10.651Z,0.53
2023-04-25T10:21:10.707Z,0.52
2023-04-25T10:22:10.732Z,0.52
2023-04-25T10:23:10.781Z,0.52
2023-04-25T10:24:10.820Z,0.54
2023-04-25T10:25:10.906Z,0.53
2023-04-25T10:26:10.896Z,0.54
2023-04-25T10:27:10.925Z,0.54
2023-04-25T10:28:11.011Z,0.54
2023-04-25T10:29:11.047Z,0.53
2023-04-25T10:30:11.059Z,0.51
2023-04-25T10:31:11.234Z,0.52
2023-04-25T10:32:11.361Z,0.54
2023-04-25T10:33:11.178Z,0.55
2023-04-25T10:34:11.320Z,0.55
2023-04-25T10:35:11.261Z,0.55
2023-04-25T10:36:11.301Z,0.54
2023-04-25T10:37:11.348Z,0.54
2023-04-25T10:38:11.390Z,0.55
2023-04-25T10:39:11.842Z,0.55
2023-04-25T10:40:11.480Z,0.56
2023-04-25T10:41:11.493Z,0.57
2023-04-25T10:42:11.524Z,0.56
2023-04-25T10:43:12.719Z,0.61
2023-04-25T10:44:11.596Z,0.65
2023-04-25T10:45:11.814Z,0.66
2023-04-25T10:46:11.690Z,0.66
2023-04-25T10:47:11.826Z,0.62
2023-04-25T10:48:11.913Z,0.60
2023-04-25T10:50:11.860Z,0.52
2023-04-25T10:51:11.879Z,0.51
2023-04-25T10:52:11.890Z,0.56
2023-04-25T10:53:11.934Z,0.58
2023-04-25T10:54:11.962Z,0.56
2023-04-25T10:55:12.036Z,0.58
2023-04-25T10:56:14.325Z,0.59
2023-04-25T10:57:12.143Z,0.58
2023-04-25T10:58:12.208Z,0.59
2023-04-25T10:59:12.254Z,0.60
2023-04-25T11:00:12.382Z,0.58
2023-04-25T11:01:12.364Z,0.58
2023-04-25T11:02:12.571Z,0.59
2023-04-25T11:03:12.612Z,0.55
2023-04-25T11:04:12.705Z,0.59
2023-04-25T11:05:12.857Z,0.56
2023-04-25T11:06:12.579Z,0.55
2023-04-25T11:07:12.686Z,0.55
2023-04-25T11:08:12.665Z,0.59
2023-04-25T11:09:12.730Z,0.56
2023-04-25T11:10:12.857Z,0.57
2023-04-25T11:11:12.841Z,0.56
2023-04-25T11:12:13.149Z,0.56
2023-04-25T11:13:12.932Z,0.54
2023-04-25T11:14:12.998Z,0.52
2023-04-25T11:15:13.333Z,0.54
2023-04-25T11:16:13.651Z,0.56
2023-04-25T11:17:14.235Z,0.56
2023-04-25T11:18:13.146Z,0.56
2023-04-25T11:19:13.111Z,0.56
2023-04-25T11:20:13.400Z,0.53
2023-04-25T11:21:13.084Z,0.57
2023-04-25T11:22:13.066Z,0.59
2023-04-25T11:23:13.074Z,0.57
2023-04-25T11:24:13.114Z,0.55
2023-04-25T11:25:13.377Z,0.57
2023-04-25T11:26:13.233Z,0.56
2023-04-25T11:27:13.240Z,0.59
2023-04-25T11:28:13.306Z,0.57
2023-04-25T11:29:13.386Z,0.61
2023-04-25T11:30:13.876Z,0.59
2023-04-25T11:31:13.514Z,0.60
2023-04-25T11:32:13.622Z,0.57
2023-04-25T11:33:13.662Z,0.56
2023-04-25T11:34:13.709Z,0.59
2023-04-25T11:35:13.864Z,0.56
2023-04-25T11:36:13.861Z,0.56
2023-04-25T11:37:13.850Z,0.63
2023-04-25T11:38:13.929Z,0.64
2023-04-25T11:39:13.973Z,0.70
2023-04-25T11:40:14.050Z,0.66
2023-04-25T11:41:14.119Z,0.66
2023-04-25T11:42:14.343Z,0.67
2023-04-25T11:43:14.257Z,0.66
2023-04-25T11:44:14.316Z,0.64
2023-04-25T11:45:14.323Z,0.64
2023-04-25T11:46:14.418Z,0.65
2023-04-25T11:47:14.465Z,0.66
2023-04-25T11:48:15.000Z,0.64
2023-04-25T11:49:14.583Z,0.63
2023-04-25T11:50:14.647Z,0.64
2023-04-25T11:51:14.712Z,0.64
2023-04-25T11:52:14.745Z,0.65
2023-04-25T11:53:14.841Z,0.66
2023-04-25T11:54:14.901Z,0.65
2023-04-25T11:55:14.954Z,0.67
2023-04-25T11:56:14.990Z,0.66
2023-04-25T11:57:15.064Z,0.66
2023-04-25T11:58:15.129Z,0.77
2023-04-25T11:59:15.176Z,0.87
2023-04-25T12:00:18.077Z,0.98
2023-04-25T12:01:15.228Z,1.23
2023-04-25T12:02:15.216Z,1.73
2023-04-25T12:03:15.279Z,1.89
2023-04-25T12:04:15.475Z,1.95
2023-04-25T12:05:30.247Z,1.96
2023-04-25T12:06:16.658Z,1.91
2023-04-25T12:07:15.172Z,1.93
2023-04-25T12:08:15.168Z,2.02
2023-04-25T12:09:15.155Z,2.01
2023-04-25T12:10:15.227Z,1.82
2023-04-25T12:11:15.256Z,1.76
2023-04-25T12:12:15.305Z,1.74
2023-04-25T12:13:15.352Z,1.85
2023-04-25T12:14:15.380Z,1.96
2023-04-25T12:15:15.457Z,1.72
2023-04-25T12:16:15.543Z,1.64
2023-04-25T12:17:15.493Z,1.67
2023-04-25T12:18:15.631Z,1.69
2023-04-25T12:19:15.551Z,1.68
2023-04-25T12:20:15.876Z,1.71
2023-04-25T12:21:15.675Z,1.69
2023-04-25T12:22:15.677Z,1.71
2023-04-25T12:23:15.736Z,1.73
2023-04-25T12:24:15.778Z,1.69
2023-04-25T12:25:15.863Z,1.69
2023-04-25T12:26:15.810Z,1.78
2023-04-25T12:27:15.847Z,1.75
2023-04-25T12:28:15.896Z,1.81
2023-04-25T12:29:15.929Z,1.85
2023-04-25T12:30:16.868Z,1.74
2023-04-25T12:31:16.039Z,1.51
2023-04-25T12:32:15.997Z,1.63
2023-04-25T12:33:16.084Z,1.52
2023-04-25T12:34:16.025Z,1.43
2023-04-25T12:35:16.399Z,1.39
2023-04-25T12:36:16.078Z,1.38
2023-04-25T12:37:16.128Z,1.38
2023-04-25T12:38:16.180Z,1.41
2023-04-25T12:39:16.162Z,1.36
2023-04-25T12:40:16.375Z,1.33
2023-04-25T12:41:16.245Z,1.30
2023-04-25T12:42:16.274Z,1.29
2023-04-25T12:43:16.264Z,1.29
2023-04-25T12:44:16.312Z,1.25
2023-04-25T12:45:16.410Z,1.22
2023-04-25T12:46:17.439Z,1.20
2023-04-25T12:47:16.433Z,1.18
2023-04-25T12:48:16.436Z,1.21
2023-04-25T12:49:19.049Z,1.19
2023-04-25T12:50:16.877Z,1.16
2023-04-25T12:51:16.500Z,1.19
2023-04-25T12:52:16.455Z,1.24
2023-04-25T12:53:16.431Z,1.15
2023-04-25T12:54:16.456Z,1.15
2023-04-25T12:55:16.456Z,1.15
2023-04-25T12:56:16.421Z,1.16
2023-04-25T12:57:16.423Z,1.12
2023-04-25T12:58:16.406Z,1.11
2023-04-25T12:59:16.516Z,1.16
2023-04-25T13:00:23.399Z,1.12
2023-04-25T13:01:16.432Z,1.12
2023-04-25T13:02:16.493Z,1.12
2023-04-25T13:03:16.490Z,1.10
2023-04-25T13:04:16.557Z,1.04
2023-04-25T13:05:16.409Z,1.05
2023-04-25T13:06:16.382Z,1.02
2023-04-25T13:07:16.351Z,1.08
2023-04-25T13:08:16.386Z,1.09
2023-04-25T13:09:16.365Z,1.06
2023-04-25T13:10:16.336Z,1.05
2023-04-25T13:11:16.331Z,1.05
2023-04-25T13:12:16.341Z,1.09
2023-04-25T13:13:16.321Z,1.06
2023-04-25T13:14:16.285Z,1.08
2023-04-25T13:15:16.314Z,1.01
2023-04-25T13:16:16.331Z,0.99
2023-04-25T13:17:16.320Z,1.01
2023-04-25T13:18:16.296Z,0.97
2023-04-25T13:19:16.273Z,0.97
2023-04-25T13:20:16.398Z,0.92
2023-04-25T13:21:16.249Z,0.92